createdAt,value
2022-11-01T00:00:48.876Z,12.00
2022-11-01T00:10:49.187Z,0.00
2022-11-01T00:20:49.203Z,0.00
2022-11-01T00:30:49.532Z,0.00
2022-11-01T00:40:49.559Z,0.00
2022-11-01T00:50:49.880Z,0.00
2022-11-01T01:00:50.247Z,0.00
2022-11-01T01:10:50.243Z,0.00
2022-11-01T01:20:50.265Z,0.00
2022-11-01T01:30:50.584Z,0.00
2022-11-01T01:40:50.610Z,0.00
2022-11-01T01:50:50.921Z,0.00
2022-11-01T02:00:51.140Z,0.00
2022-11-01T02:10:51.268Z,0.00
2022-11-01T02:20:51.304Z,0.00
2022-11-01T02:30:51.622Z,0.00
2022-11-01T02:40:51.659Z,0.00
2022-11-01T02:50:51.961Z,0.00
2022-11-01T03:00:52.108Z,0.00
2022-11-01T03:10:52.225Z,0.00
2022-11-01T03:20:52.449Z,0.00
2022-11-01T03:30:52.770Z,0.00
2022-11-01T03:40:52.795Z,0.00
2022-11-01T03:50:53.114Z,0.00
2022-11-01T04:00:53.188Z,0.00
2022-11-01T04:10:53.283Z,0.00
2022-11-01T04:20:53.325Z,0.00
2022-11-01T04:30:53.634Z,0.00
2022-11-01T04:40:53.680Z,0.00
2022-11-01T04:50:54.906Z,0.00
2022-11-01T05:00:54.208Z,0.00
2022-11-01T05:10:54.320Z,0.00
2022-11-01T05:20:54.632Z,0.00
2022-11-01T05:30:54.779Z,0.00
2022-11-01T05:40:54.838Z,0.00
2022-11-01T05:50:55.127Z,0.00
2022-11-01T06:00:55.216Z,4.00
2022-11-01T06:10:55.268Z,8.00
2022-11-01T06:20:55.492Z,16.00
2022-11-01T06:30:55.873Z,24.00
2022-11-01T06:40:55.921Z,32.00
2022-11-01T06:50:56.168Z,44.00
2022-11-01T07:00:56.451Z,88.00
2022-11-01T07:10:56.618Z,140.00
2022-11-01T07:20:56.639Z,156.00
2022-11-01T07:30:56.974Z,128.00
2022-11-01T07:40:56.997Z,176.00
2022-11-01T07:50:57.347Z,236.00
2022-11-01T08:00:57.383Z,268.00
2022-11-01T08:10:57.684Z,304.00
2022-11-01T08:20:57.709Z,368.00
2022-11-01T08:30:58.018Z,400.00
2022-11-01T08:40:58.088Z,568.00
2022-11-01T08:50:58.476Z,832.00
2022-11-01T09:00:58.430Z,1204.00
2022-11-01T09:10:58.738Z,952.00
2022-11-01T09:20:58.758Z,668.00
2022-11-01T09:31:08.111Z,592.00
2022-11-01T09:41:00.140Z,684.00
2022-11-01T09:50:59.418Z,752.00
2022-11-01T10:00:59.480Z,768.00
2022-11-01T10:10:59.576Z,824.00
2022-11-01T10:20:59.751Z,908.00
2022-11-01T10:31:00.016Z,864.00
2022-11-01T10:41:00.259Z,976.00
2022-11-01T10:51:00.578Z,960.00
2022-11-01T11:01:00.726Z,704.00
2022-11-01T11:11:00.930Z,620.00
2022-11-01T11:21:00.970Z,668.00
2022-11-01T11:31:01.278Z,784.00
2022-11-01T11:41:01.305Z,708.00
2022-11-01T11:51:01.619Z,704.00
2022-11-01T12:01:01.649Z,664.00
2022-11-01T12:11:01.978Z,552.00
2022-11-01T12:21:02.058Z,488.00
2022-11-01T12:31:02.221Z,476.00
2022-11-01T12:41:04.998Z,500.00
2022-11-01T12:51:02.575Z,540.00
2022-11-01T13:01:02.672Z,416.00
2022-11-01T13:11:02.819Z,404.00
2022-11-01T13:21:02.838Z,484.00
2022-11-01T13:31:03.167Z,540.00
2022-11-01T13:41:03.207Z,492.00
2022-11-01T13:51:03.604Z,336.00
2022-11-01T14:01:03.727Z,288.00
2022-11-01T14:11:03.879Z,328.00
2022-11-01T14:21:03.882Z,596.00
2022-11-01T14:31:04.146Z,692.00
2022-11-01T14:41:04.359Z,608.00
2022-11-01T14:51:04.595Z,552.00
2022-11-01T15:01:05.068Z,372.00
2022-11-01T15:11:05.012Z,296.00
2022-11-01T15:21:07.926Z,276.00
2022-11-01T15:31:05.479Z,164.00
2022-11-01T15:41:05.517Z,92.00
2022-11-01T15:51:05.953Z,52.00
2022-11-01T16:01:05.925Z,28.00
2022-11-01T16:11:06.243Z,8.00
2022-11-01T16:21:10.742Z,4.00
2022-11-01T16:31:06.371Z,0.00
2022-11-01T16:41:06.694Z,0.00
2022-11-01T16:51:06.930Z,0.00
2022-11-01T17:01:07.065Z,0.00
2022-11-01T17:11:07.173Z,0.00
2022-11-01T17:21:07.301Z,12.00
2022-11-01T17:31:07.573Z,0.00
2022-11-01T17:41:07.719Z,0.00
2022-11-01T17:51:07.740Z,0.00
2022-11-01T18:01:08.130Z,0.00
2022-11-01T18:11:08.124Z,0.00
2022-11-01T18:21:08.280Z,0.00
2022-11-01T18:31:23.621Z,0.00
2022-11-01T18:41:13.009Z,0.00
2022-11-01T18:51:09.741Z,0.00
2022-11-01T19:01:09.210Z,0.00
2022-11-01T19:11:21.402Z,0.00
2022-11-01T19:21:10.110Z,0.00
2022-11-01T19:31:09.578Z,0.00
2022-11-01T19:41:09.692Z,0.00
2022-11-01T19:51:10.988Z,0.00
2022-11-01T20:01:10.197Z,0.00
2022-11-01T20:11:10.316Z,0.00
2022-11-01T20:21:10.433Z,0.00
2022-11-01T20:31:10.616Z,0.00
2022-11-01T20:41:10.746Z,0.00
2022-11-01T20:51:10.899Z,0.00
2022-11-01T21:01:11.067Z,0.00
2022-11-01T21:11:11.333Z,0.00
2022-11-01T21:21:11.291Z,0.00
2022-11-01T21:31:11.262Z,0.00
2022-11-01T21:41:11.502Z,0.00
2022-11-01T21:51:11.720Z,0.00
2022-11-01T22:01:11.828Z,0.00
2022-11-01T22:11:11.857Z,0.00
2022-11-01T22:21:11.877Z,0.00
2022-11-01T22:31:12.214Z,0.00
2022-11-01T22:41:12.244Z,0.00
2022-11-01T22:51:12.762Z,0.00
2022-11-01T23:01:12.745Z,0.00
2022-11-01T23:11:13.229Z,0.00
2022-11-01T23:21:13.069Z,0.00
2022-11-01T23:31:13.358Z,0.00
2022-11-01T23:41:13.396Z,0.00
2022-11-01T23:51:13.703Z,0.00
